Time;durP1;ratioP1;P1;durP2;ratioP2;P2;SDS_P1;SDS_P2;PMS_P1;PMS_P2;Temp;Humidity;BMP_temperature;BMP_pressure;BME280_temperature;BME280_humidity;BME280_pressure;Samples;Min_cycle;Max_cycle;Signal;HPM_P1;HPM_P2
2023/06/11 04:23:39;;;;;;;10.02;8.00;;;19.40;99.90;;;;;;4980970;23;20070;-92
2023/06/11 04:26:15;;;;;;;13.93;7.53;;;19.60;99.90;;;;;;4910828;29;20043;-93
2023/06/11 04:33:04;;;;;;;11.57;8.20;;;19.80;99.90;;;;;;4844518;29;20042;-93
2023/06/11 04:35:37;;;;;;;12.07;8.95;;;20.30;99.90;;;;;;4844469;29;20512;-93
2023/06/11 04:38:10;;;;;;;10.10;9.10;;;20.60;99.90;;;;;;4845554;29;20448;-94
2023/06/11 04:40:38;;;;;;;12.03;9.93;;;20.90;99.90;;;;;;4844884;29;20033;-93
2023/06/11 04:43:44;;;;;;;14.80;10.50;;;21.10;99.90;;;;;;4845312;29;20303;-94
2023/06/11 04:50:24;;;;;;;13.32;12.02;;;22.70;99.90;;;;;;4792635;29;20046;-96
2023/06/11 04:53:03;;;;;;;13.70;12.50;;;22.70;99.90;;;;;;4703851;30;20531;-94
2023/06/11 04:58:46;;;;;;;17.33;15.70;;;23.30;99.90;;;;;;4718504;30;20074;-95
2023/06/11 05:01:53;;;;;;;17.27;15.98;;;24.10;99.90;;;;;;4718355;30;20037;-93
2023/06/11 05:04:37;;;;;;;17.30;15.75;;;23.90;99.90;;;;;;4719191;30;20049;-93
2023/06/11 05:07:25;;;;;;;16.58;15.13;;;23.60;99.90;;;;;;4719761;30;20044;-92
2023/06/11 05:10:21;;;;;;;16.42;14.93;;;23.30;99.90;;;;;;4653260;30;20094;-95
2023/06/11 05:13:40;;;;;;;15.45;14.32;;;22.90;99.90;;;;;;4683408;30;20065;-93
2023/06/11 05:19:41;;;;;;;15.77;14.48;;;22.90;99.90;;;;;;4673651;30;20132;-93
2023/06/11 05:22:46;;;;;;;15.73;14.50;;;22.90;99.90;;;;;;4684699;30;20060;-95
2023/06/11 05:25:19;;;;;;;14.60;13.38;;;23.00;99.90;;;;;;4684961;30;20133;-94
2023/06/11 05:28:18;;;;;;;15.68;14.32;;;22.90;99.90;;;;;;4753323;30;20043;-94
2023/06/11 05:30:52;;;;;;;15.95;14.48;;;23.00;99.90;;;;;;4822879;29;20140;-93
2023/06/11 05:33:18;;;;;;;16.33;15.02;;;23.00;99.90;;;;;;4831864;29;20034;-92
2023/06/11 05:35:46;;;;;;;16.23;15.05;;;22.90;99.90;;;;;;4859042;29;20502;-92
2023/06/11 05:38:14;;;;;;;16.50;15.15;;;22.90;99.90;;;;;;4898844;29;20529;-93
2023/06/11 05:43:24;;;;;;;16.40;15.20;;;22.90;99.90;;;;;;5439728;23;20122;-92
2023/06/11 05:45:51;;;;;;;18.02;16.30;;;22.80;99.90;;;;;;4943704;28;20027;-93
2023/06/11 05:48:20;;;;;;;17.17;15.77;;;22.70;99.90;;;;;;4959313;28;20027;-92
2023/06/11 05:50:47;;;;;;;18.00;16.23;;;22.80;99.90;;;;;;4943752;28;20019;-92
2023/06/11 05:53:14;;;;;;;17.35;16.15;;;23.40;99.90;;;;;;4940249;29;20507;-93
2023/06/11 05:55:42;;;;;;;18.95;17.67;;;24.30;99.90;;;;;;4940082;29;20031;-93
2023/06/11 05:58:11;;;;;;;19.63;18.23;;;25.10;99.90;;;;;;4940046;29;20023;-95
2023/06/11 06:00:38;;;;;;;17.50;16.20;;;25.60;99.90;;;;;;4939247;29;20031;-92
2023/06/11 06:03:05;;;;;;;17.95;16.67;;;26.20;99.90;;;;;;4921445;29;20059;-94
2023/06/11 06:05:34;;;;;;;19.55;18.20;;;27.50;99.90;;;;;;4906492;29;20378;-94
2023/06/11 06:08:01;;;;;;;21.15;19.55;;;28.60;99.90;;;;;;4906940;29;20118;-93
2023/06/11 06:10:27;;;;;;;20.13;18.80;;;29.00;99.90;;;;;;4907263;29;20091;-93
2023/06/11 06:12:55;;;;;;;20.38;18.88;;;28.80;99.90;;;;;;4908540;29;20031;-93
2023/06/11 06:15:21;;;;;;;20.63;19.08;;;28.60;99.90;;;;;;4918697;29;20032;-94
2023/06/11 06:17:48;;;;;;;20.98;19.35;;;28.00;99.90;;;;;;4925285;29;20038;-93
2023/06/11 06:20:22;;;;;;;20.42;18.95;;;27.50;99.90;;;;;;4928855;29;20544;-92
2023/06/11 06:22:49;;;;;;;21.13;19.48;;;27.40;99.90;;;;;;4922038;29;20047;-95
2023/06/11 06:25:17;;;;;;;20.17;18.95;;;27.60;99.90;;;;;;4920775;29;20028;-95
2023/06/11 06:27:47;;;;;;;21.02;19.40;;;28.10;99.90;;;;;;4922252;23;20055;-93
2023/06/11 06:30:15;;;;;;;20.42;18.92;;;28.40;99.90;;;;;;4924158;29;20472;-93
2023/06/11 06:32:43;;;;;;;20.77;19.27;;;28.20;99.90;;;;;;4923845;29;20035;-94
2023/06/11 06:35:10;;;;;;;19.88;18.58;;;27.20;99.90;;;;;;4923622;29;20023;-91
2023/06/11 06:37:37;;;;;;;20.08;18.77;;;27.40;99.90;;;;;;4939431;29;20035;-92
2023/06/11 06:40:04;;;;;;;19.70;18.25;;;28.40;99.90;;;;;;4923763;29;20516;-92
2023/06/11 06:42:32;;;;;;;20.98;19.55;;;29.20;99.90;;;;;;4939779;29;20563;-93
2023/06/11 06:45:02;;;;;;;20.45;19.02;;;29.30;99.90;;;;;;4923876;29;20031;-93
2023/06/11 06:47:29;;;;;;;21.00;19.60;;;29.10;99.90;;;;;;4923403;29;20035;-91
2023/06/11 06:50:00;;;;;;;20.85;19.25;;;28.90;99.90;;;;;;4923635;29;20027;-92
2023/06/11 06:52:27;;;;;;;20.80;19.40;;;28.10;99.90;;;;;;4923491;29;20039;-92
2023/06/11 06:54:54;;;;;;;21.35;19.75;;;27.20;99.90;;;;;;4923547;29;20103;-93
2023/06/11 06:57:22;;;;;;;20.67;18.98;;;27.60;99.90;;;;;;4923750;29;20031;-94
2023/06/11 06:59:49;;;;;;;20.35;19.00;;;28.50;99.90;;;;;;4923720;29;20477;-93
2023/06/11 07:02:16;;;;;;;20.85;19.55;;;29.70;99.90;;;;;;4923628;29;20086;-92
2023/06/11 07:04:42;;;;;;;21.13;19.73;;;30.40;99.90;;;;;;4923228;29;20035;-94
2023/06/11 07:07:09;;;;;;;20.70;19.00;;;29.70;99.90;;;;;;4920450;29;20028;-92
2023/06/11 07:09:36;;;;;;;21.42;19.85;;;29.10;99.90;;;;;;4923088;29;20038;-92
2023/06/11 07:12:03;;;;;;;21.52;19.75;;;28.00;99.90;;;;;;4939015;29;20031;-93
2023/06/11 07:14:31;;;;;;;21.15;19.65;;;27.30;99.90;;;;;;4923445;29;20053;-92
2023/06/11 07:17:00;;;;;;;20.95;19.40;;;27.10;99.90;;;;;;4939229;29;20038;-93
2023/06/11 07:19:28;;;;;;;20.15;18.58;;;26.90;99.90;;;;;;4924323;29;20063;-93
2023/06/11 07:21:55;;;;;;;20.80;19.17;;;26.80;99.90;;;;;;4939024;29;20036;-93
2023/06/11 07:24:24;;;;;;;21.02;19.25;;;26.50;99.90;;;;;;4925107;29;20031;-94
2023/06/11 07:26:51;;;;;;;20.13;18.52;;;26.20;99.90;;;;;;4942633;29;20030;-92
2023/06/11 07:29:19;;;;;;;19.42;17.95;;;26.10;99.90;;;;;;4942602;29;20050;-93
2023/06/11 07:31:45;;;;;;;20.63;18.88;;;26.10;99.90;;;;;;4927195;29;20099;-93
2023/06/11 07:34:14;;;;;;;20.33;18.65;;;25.90;99.90;;;;;;4926784;29;20039;-92
2023/06/11 07:36:41;;;;;;;20.23;18.50;;;25.70;99.90;;;;;;4927250;29;20032;-92
2023/06/11 07:39:17;;;;;;;19.05;17.55;;;25.50;99.90;;;;;;4934309;29;20095;-94
2023/06/11 07:41:45;;;;;;;19.40;17.70;;;25.40;99.90;;;;;;4923378;29;20024;-92
2023/06/11 07:44:11;;;;;;;18.35;16.95;;;25.50;99.90;;;;;;4923508;29;20032;-93
2023/06/11 07:46:38;;;;;;;19.35;17.77;;;26.30;99.90;;;;;;4923250;29;20024;-93
2023/06/11 07:49:05;;;;;;;19.90;18.50;;;27.30;99.90;;;;;;4926424;29;20031;-93
2023/06/11 07:52:32;;;;;;;;;;;;;;;;;;;;;
2023/06/11 07:55:25;;;;;;;19.90;18.38;;;29.30;99.90;;;;;;4889950;29;20072;-93
2023/06/11 07:58:17;;;;;;;20.40;18.80;;;29.70;99.90;;;;;;4923796;23;20059;-94
2023/06/11 08:00:49;;;;;;;20.30;18.92;;;29.30;99.90;;;;;;4916626;29;20043;-95
2023/06/11 08:03:19;;;;;;;22.52;19.90;;;28.40;99.90;;;;;;4961506;29;20055;-93
2023/06/11 08:05:45;;;;;;;20.17;18.98;;;27.20;99.90;;;;;;4942463;29;20027;-94
2023/06/11 08:10:38;;;;;;;20.98;19.27;;;26.10;99.90;;;;;;4976015;23;20450;-93
2023/06/11 08:13:04;;;;;;;19.67;18.17;;;26.00;99.90;;;;;;4926370;29;20031;-95
2023/06/11 08:15:39;;;;;;;19.50;17.92;;;27.00;99.90;;;;;;4945846;29;20126;-93
2023/06/11 08:18:18;;;;;;;20.33;18.73;;;27.50;99.90;;;;;;4942305;29;20024;-94
2023/06/11 08:21:00;;;;;;;19.90;18.50;;;27.20;99.90;;;;;;4949362;29;20050;-93
2023/06/11 08:23:43;;;;;;;20.30;18.92;;;26.80;99.90;;;;;;4926801;29;20039;-94
2023/06/11 08:26:14;;;;;;;19.75;18.35;;;26.80;99.90;;;;;;4903559;29;20596;-94
2023/06/11 08:28:49;;;;;;;20.30;18.75;;;27.10;99.90;;;;;;4904283;29;20051;-95
2023/06/11 08:31:16;;;;;;;19.73;18.42;;;27.00;99.90;;;;;;4904536;29;20036;-94
2023/06/11 08:33:45;;;;;;;19.95;18.42;;;27.10;99.90;;;;;;4905755;29;20032;-95
2023/06/11 08:36:18;;;;;;;20.08;18.77;;;27.80;99.90;;;;;;4909051;29;20044;-94
2023/06/11 08:38:50;;;;;;;20.08;18.67;;;28.90;99.90;;;;;;4900104;29;20023;-93
2023/06/11 08:41:23;;;;;;;19.75;18.42;;;28.60;99.90;;;;;;4915430;29;20040;-94
2023/06/11 08:43:50;;;;;;;19.50;18.20;;;27.90;99.90;;;;;;4905166;29;20048;-94
2023/06/11 08:46:24;;;;;;;19.60;18.10;;;27.80;99.90;;;;;;4903143;29;20036;-93
2023/06/11 08:48:59;;;;;;;20.13;18.65;;;27.60;99.90;;;;;;4902987;29;20024;-94
2023/06/11 08:51:28;;;;;;;19.45;18.15;;;27.00;99.90;;;;;;4887342;29;20135;-95
2023/06/11 08:53:56;;;;;;;19.35;18.08;;;26.60;99.90;;;;;;4887166;29;20032;-93
2023/06/11 08:56:24;;;;;;;20.13;18.63;;;26.30;99.90;;;;;;4894711;29;20126;-94
2023/06/11 08:58:53;;;;;;;19.83;18.63;;;26.00;99.90;;;;;;4926518;29;20028;-92
2023/06/11 09:01:22;;;;;;;19.92;18.48;;;25.80;99.90;;;;;;4925747;29;20036;-94
2023/06/11 09:03:48;;;;;;;19.42;18.23;;;25.70;99.90;;;;;;4925796;29;20066;-94
2023/06/11 09:06:15;;;;;;;19.67;18.00;;;25.50;99.90;;;;;;4926096;28;20086;-93
2023/06/11 09:08:42;;;;;;;19.45;17.88;;;25.30;99.90;;;;;;4925414;29;20432;-94
2023/06/11 09:11:15;;;;;;;19.27;17.02;;;25.10;99.90;;;;;;4915504;29;20052;-92
2023/06/11 09:13:42;;;;;;;17.67;13.20;;;25.00;99.90;;;;;;4903807;29;20036;-95
2023/06/11 09:16:09;;;;;;;12.07;10.93;;;24.60;99.90;;;;;;4903951;29;20276;-93
2023/06/11 09:18:36;;;;;;;10.75;9.93;;;24.10;99.90;;;;;;4903932;29;20028;-93
2023/06/11 09:21:03;;;;;;;14.52;10.45;;;23.80;99.90;;;;;;4903475;29;20029;-93
2023/06/11 09:23:37;;;;;;;10.02;9.13;;;23.60;99.90;;;;;;4919926;29;20039;-94
2023/06/11 09:26:05;;;;;;;11.15;10.35;;;23.70;99.90;;;;;;4903436;29;20028;-94
2023/06/11 09:28:36;;;;;;;12.18;11.32;;;23.80;99.90;;;;;;4903803;29;20028;-93
2023/06/11 09:31:05;;;;;;;14.70;13.70;;;24.00;99.90;;;;;;4918542;29;20033;-93
2023/06/11 09:33:32;;;;;;;15.43;14.40;;;24.90;99.90;;;;;;4903780;29;20119;-94
2023/06/11 09:35:59;;;;;;;18.00;16.52;;;25.80;99.90;;;;;;4919117;29;20096;-95
2023/06/11 09:38:34;;;;;;;17.70;16.60;;;26.30;99.90;;;;;;4902720;29;20036;-94
2023/06/11 09:41:06;;;;;;;16.38;15.07;;;26.90;99.90;;;;;;4902756;29;20032;-95
2023/06/11 09:43:34;;;;;;;16.17;15.02;;;27.20;99.90;;;;;;4902776;29;20420;-94
2023/06/11 09:46:02;;;;;;;17.52;16.48;;;27.40;99.90;;;;;;4902001;29;20024;-94
2023/06/11 09:48:29;;;;;;;16.75;15.73;;;27.20;99.90;;;;;;4902530;29;20036;-94
2023/06/11 09:50:56;;;;;;;16.13;15.15;;;27.50;99.90;;;;;;4902932;29;20490;-94
2023/06/11 09:53:24;;;;;;;18.00;16.65;;;27.80;99.90;;;;;;4902759;29;20122;-93
2023/06/11 09:55:51;;;;;;;17.92;16.50;;;27.60;99.90;;;;;;4902445;29;20035;-94
2023/06/11 09:58:22;;;;;;;18.13;16.75;;;26.90;99.90;;;;;;4903270;29;20028;-93
2023/06/11 10:00:52;;;;;;;17.13;16.05;;;26.80;99.90;;;;;;4918241;29;20111;-94
2023/06/11 10:03:20;;;;;;;17.02;15.82;;;27.00;99.90;;;;;;4917578;29;20051;-94
2023/06/11 10:05:48;;;;;;;18.23;17.13;;;26.90;99.90;;;;;;4902478;29;20063;-93
2023/06/11 10:08:22;;;;;;;17.80;16.65;;;27.10;99.90;;;;;;4902279;29;20498;-93
2023/06/11 10:10:55;;;;;;;17.27;16.17;;;27.40;99.90;;;;;;4917615;29;20036;-93
2023/06/11 10:13:33;;;;;;;18.30;17.02;;;27.30;99.90;;;;;;4917944;29;20046;-94
2023/06/11 10:16:07;;;;;;;18.95;17.73;;;27.00;99.90;;;;;;4917536;29;20441;-95
2023/06/11 10:18:33;;;;;;;17.98;16.35;;;27.00;99.90;;;;;;4918063;29;20039;-93
2023/06/11 10:21:02;;;;;;;17.83;16.73;;;26.60;99.90;;;;;;4917773;29;20067;-93
2023/06/11 10:23:40;;;;;;;17.58;16.52;;;26.60;99.90;;;;;;4917590;29;20044;-94
2023/06/11 10:26:10;;;;;;;18.20;16.88;;;26.40;99.90;;;;;;4917505;29;20028;-94
2023/06/11 10:28:51;;;;;;;18.63;17.27;;;26.30;99.90;;;;;;4917385;29;20052;-92
2023/06/11 10:31:36;;;;;;;17.90;16.90;;;26.00;99.90;;;;;;4901876;29;20032;-93
2023/06/11 10:34:04;;;;;;;18.20;16.88;;;26.10;99.90;;;;;;4901798;29;20032;-93
2023/06/11 10:36:41;;;;;;;17.83;16.73;;;26.30;99.90;;;;;;4901983;29;20367;-94
2023/06/11 10:39:20;;;;;;;18.25;16.73;;;26.40;99.90;;;;;;4901906;29;20040;-93
2023/06/11 10:42:00;;;;;;;18.40;16.98;;;26.40;99.90;;;;;;4901838;29;20381;-94
2023/06/11 10:44:31;;;;;;;17.98;16.63;;;26.20;99.90;;;;;;4901786;29;20032;-93
2023/06/11 10:47:01;;;;;;;18.25;17.10;;;26.30;99.90;;;;;;4901956;29;20028;-93
2023/06/11 10:49:28;;;;;;;17.95;16.75;;;26.10;99.90;;;;;;4898126;29;20036;-93
2023/06/11 10:51:55;;;;;;;18.20;17.00;;;26.30;99.90;;;;;;4897963;29;20104;-93
2023/06/11 10:54:27;;;;;;;18.02;16.73;;;26.50;99.90;;;;;;4897897;29;20041;-93
2023/06/11 10:56:54;;;;;;;18.42;17.23;;;26.60;99.90;;;;;;4899073;29;20099;-93
2023/06/11 10:59:22;;;;;;;18.60;17.40;;;26.60;99.90;;;;;;4887268;29;20033;-93
2023/06/11 11:01:53;;;;;;;18.25;17.13;;;26.30;99.90;;;;;;4909807;29;20048;-94
2023/06/11 11:04:21;;;;;;;17.90;16.90;;;26.50;99.90;;;;;;4900708;29;20068;-95
2023/06/11 11:06:57;;;;;;;17.77;16.77;;;26.90;99.90;;;;;;4883360;29;20555;-94
2023/06/11 11:09:24;;;;;;;18.63;17.52;;;27.10;99.90;;;;;;4897686;29;20534;-94
2023/06/11 11:11:59;;;;;;;18.88;17.63;;;27.30;99.90;;;;;;4897081;29;20494;-93
2023/06/11 11:14:30;;;;;;;18.15;17.10;;;27.40;99.90;;;;;;4897531;29;20558;-94
2023/06/11 11:17:00;;;;;;;18.30;17.30;;;27.70;99.90;;;;;;4897001;29;20029;-94
2023/06/11 11:19:27;;;;;;;18.10;17.10;;;27.70;99.90;;;;;;4897455;29;20136;-93
2023/06/11 11:21:55;;;;;;;18.98;17.67;;;27.50;99.90;;;;;;4882057;29;20043;-96
2023/06/11 11:24:21;;;;;;;19.00;17.48;;;27.20;99.90;;;;;;4897173;29;20545;-93
2023/06/11 11:26:48;;;;;;;18.35;17.23;;;27.50;99.90;;;;;;4890815;29;20036;-94
2023/06/11 11:29:15;;;;;;;18.85;17.65;;;27.90;99.90;;;;;;4916746;29;20048;-93
2023/06/11 11:31:42;;;;;;;18.70;17.60;;;27.80;99.90;;;;;;4917074;29;20028;-94
2023/06/11 11:34:09;;;;;;;19.38;18.05;;;27.80;99.90;;;;;;4917086;29;20036;-95
2023/06/11 11:36:36;;;;;;;18.80;17.60;;;27.80;99.90;;;;;;4917307;29;20063;-93
2023/06/11 11:39:23;;;;;;;19.35;18.20;;;27.90;99.90;;;;;;4916862;29;20040;-94
2023/06/11 11:41:51;;;;;;;19.30;18.00;;;28.00;99.90;;;;;;4901637;29;20060;-93
2023/06/11 11:44:19;;;;;;;18.48;17.48;;;27.80;99.90;;;;;;4917658;29;20028;-95
2023/06/11 11:46:46;;;;;;;18.45;17.35;;;27.70;99.90;;;;;;4917453;29;20032;-93
2023/06/11 11:49:13;;;;;;;18.30;17.27;;;27.60;99.90;;;;;;4917036;29;20398;-94
2023/06/11 11:51:41;;;;;;;18.38;17.17;;;27.20;99.90;;;;;;4917067;29;20028;-94
2023/06/11 11:54:12;;;;;;;18.38;17.23;;;27.10;99.90;;;;;;4916775;29;20060;-94
2023/06/11 11:56:38;;;;;;;18.88;17.88;;;27.00;99.90;;;;;;4916832;29;20064;-94
2023/06/11 11:59:17;;;;;;;19.10;17.80;;;27.00;99.90;;;;;;4916420;29;20035;-94
2023/06/11 12:01:57;;;;;;;18.40;17.20;;;26.90;99.90;;;;;;4901334;29;20035;-93
2023/06/11 12:04:57;;;;;;;18.73;17.63;;;27.00;99.90;;;;;;4901244;29;20392;-93
2023/06/11 12:07:24;;;;;;;18.88;17.67;;;27.20;99.90;;;;;;4841487;29;20030;-94
2023/06/11 12:09:50;;;;;;;19.20;17.75;;;27.40;99.90;;;;;;4833048;29;20037;-94
2023/06/11 12:12:17;;;;;;;19.08;17.90;;;27.70;99.90;;;;;;4847717;29;20077;-93
2023/06/11 12:14:43;;;;;;;18.85;17.65;;;27.70;99.90;;;;;;4847775;29;20045;-94
2023/06/11 12:17:13;;;;;;;20.05;18.65;;;27.70;99.90;;;;;;4850742;29;20048;-93
2023/06/11 12:19:40;;;;;;;19.15;18.15;;;27.60;99.90;;;;;;4868901;29;20116;-94
2023/06/11 12:22:09;;;;;;;19.70;18.50;;;27.80;99.90;;;;;;4849842;29;20612;-93
2023/06/11 12:24:36;;;;;;;19.98;18.67;;;27.80;99.90;;;;;;4846483;29;20079;-93
2023/06/11 12:27:02;;;;;;;19.77;18.42;;;27.70;99.90;;;;;;4845402;29;20059;-93
2023/06/11 12:29:29;;;;;;;19.38;18.20;;;27.40;99.90;;;;;;4859874;29;20528;-95
2023/06/11 12:31:59;;;;;;;19.52;18.15;;;27.50;99.90;;;;;;4844362;29;20419;-94
2023/06/11 12:34:26;;;;;;;19.60;18.17;;;27.70;99.90;;;;;;4844451;29;20109;-93
2023/06/11 12:36:53;;;;;;;20.08;18.90;;;27.80;99.90;;;;;;4844369;29;20075;-95
2023/06/11 12:39:20;;;;;;;21.05;19.80;;;28.20;99.90;;;;;;4829783;29;20037;-95
2023/06/11 12:41:46;;;;;;;21.55;20.20;;;28.40;99.90;;;;;;4843984;29;20033;-94
2023/06/11 12:44:13;;;;;;;20.75;19.58;;;28.70;99.90;;;;;;4885127;29;20414;-94
2023/06/11 12:46:40;;;;;;;20.58;19.38;;;28.80;99.90;;;;;;4885318;29;20037;-95
2023/06/11 12:49:06;;;;;;;20.80;19.60;;;28.50;99.90;;;;;;4914989;29;20036;-95
2023/06/11 12:51:33;;;;;;;20.80;19.60;;;28.70;99.90;;;;;;4903554;29;20056;-93
2023/06/11 12:53:59;;;;;;;21.50;20.00;;;28.60;99.90;;;;;;4920853;29;20111;-94
2023/06/11 12:56:27;;;;;;;19.85;18.65;;;28.60;99.90;;;;;;4903734;29;20032;-95
2023/06/11 12:58:53;;;;;;;20.30;19.10;;;28.50;99.90;;;;;;4919151;29;20059;-94
2023/06/11 13:01:20;;;;;;;20.13;19.00;;;28.00;99.90;;;;;;4903632;29;20024;-93
2023/06/11 13:03:46;;;;;;;20.80;19.60;;;27.80;99.90;;;;;;4903640;29;20462;-94
2023/06/11 13:06:12;;;;;;;21.27;19.98;;;27.50;99.90;;;;;;4903797;29;20028;-94
2023/06/11 13:08:39;;;;;;;20.55;19.35;;;27.20;99.90;;;;;;4919630;29;20119;-93
2023/06/11 13:11:05;;;;;;;21.33;20.02;;;27.00;99.90;;;;;;4901775;29;20044;-93
2023/06/11 13:13:32;;;;;;;20.45;19.00;;;27.10;99.90;;;;;;4903405;29;20028;-94
2023/06/11 13:15:58;;;;;;;20.08;18.80;;;27.00;99.90;;;;;;4904474;29;20485;-93
2023/06/11 13:18:25;;;;;;;20.05;18.75;;;26.80;99.90;;;;;;4906345;29;20044;-95
2023/06/11 13:20:52;;;;;;;19.40;18.30;;;26.60;99.90;;;;;;4910946;29;20096;-92
2023/06/11 13:23:31;;;;;;;19.95;18.75;;;26.40;99.90;;;;;;4909527;29;20036;-92
2023/06/11 13:25:58;;;;;;;19.52;18.33;;;26.40;99.90;;;;;;4908698;29;20474;-94
2023/06/11 13:28:27;;;;;;;20.27;18.92;;;26.50;99.90;;;;;;4887510;29;20040;-93
2023/06/11 13:30:55;;;;;;;19.60;18.02;;;26.50;99.90;;;;;;4900403;29;20028;-93
2023/06/11 13:33:23;;;;;;;19.40;18.10;;;26.50;99.90;;;;;;4884018;29;20116;-94
2023/06/11 13:35:50;;;;;;;19.55;18.20;;;26.60;99.90;;;;;;4900040;29;20443;-93
2023/06/11 13:38:16;;;;;;;18.80;17.70;;;26.60;99.90;;;;;;4892557;29;20020;-93
2023/06/11 13:40:43;;;;;;;18.55;17.45;;;26.30;99.90;;;;;;4903002;29;20506;-93
2023/06/11 13:43:09;;;;;;;19.15;17.85;;;26.20;99.90;;;;;;4902519;29;20119;-94
2023/06/11 13:45:36;;;;;;;18.60;17.50;;;26.10;99.90;;;;;;4902733;29;20593;-94
2023/06/11 13:48:11;;;;;;;18.77;17.50;;;26.10;99.90;;;;;;4902910;29;20032;-94
2023/06/11 13:50:40;;;;;;;18.92;17.58;;;26.10;99.90;;;;;;4902982;29;20032;-94
2023/06/11 13:53:06;;;;;;;18.90;17.63;;;25.90;99.90;;;;;;4902441;29;20024;-93
2023/06/11 13:55:33;;;;;;;18.88;17.55;;;26.00;99.90;;;;;;4902667;29;20039;-94
2023/06/11 13:57:59;;;;;;;18.90;17.65;;;26.10;99.90;;;;;;4902521;29;20055;-94
2023/06/11 14:00:28;;;;;;;18.95;17.65;;;26.00;99.90;;;;;;4900883;29;20119;-93
2023/06/11 14:02:55;;;;;;;19.00;17.48;;;26.10;99.90;;;;;;4902518;29;20036;-93
2023/06/11 14:05:21;;;;;;;18.90;17.48;;;26.10;99.90;;;;;;4902301;29;20028;-94
2023/06/11 14:07:48;;;;;;;18.67;17.58;;;26.00;99.90;;;;;;4902967;29;20028;-94
2023/06/11 14:10:15;;;;;;;19.70;18.45;;;26.10;99.90;;;;;;4918428;29;20032;-93
2023/06/11 14:12:41;;;;;;;19.30;18.10;;;26.10;99.90;;;;;;4955847;29;20134;-93
2023/06/11 14:15:08;;;;;;;18.38;17.30;;;26.10;99.90;;;;;;4939968;29;20079;-94
2023/06/11 14:17:39;;;;;;;18.75;17.65;;;26.10;99.90;;;;;;4924391;29;20118;-93
2023/06/11 14:20:07;;;;;;;19.00;17.70;;;26.00;99.90;;;;;;4936915;29;20035;-92
2023/06/11 14:22:35;;;;;;;18.83;17.73;;;26.20;99.90;;;;;;4905968;29;20118;-94
2023/06/11 14:25:08;;;;;;;19.33;18.13;;;26.30;99.90;;;;;;4921451;29;20028;-92
2023/06/11 14:27:35;;;;;;;19.30;18.05;;;26.10;99.90;;;;;;4926406;28;20039;-93
2023/06/11 14:30:03;;;;;;;19.08;17.73;;;26.10;99.90;;;;;;4937679;29;20053;-92
2023/06/11 14:32:32;;;;;;;18.98;17.83;;;26.10;99.90;;;;;;4948472;28;20040;-92
2023/06/11 14:34:59;;;;;;;18.55;17.45;;;26.10;99.90;;;;;;4922623;29;20028;-94
2023/06/11 14:37:25;;;;;;;19.10;17.98;;;25.90;99.90;;;;;;4936414;29;20039;-93
2023/06/11 14:39:53;;;;;;;18.77;17.67;;;26.10;99.90;;;;;;4920776;29;20031;-93
2023/06/11 14:42:19;;;;;;;19.00;17.80;;;26.20;99.90;;;;;;4921031;29;20043;-94
2023/06/11 14:44:46;;;;;;;18.73;17.58;;;26.10;99.90;;;;;;4936394;29;20032;-93
2023/06/11 14:47:13;;;;;;;19.00;17.90;;;25.90;99.90;;;;;;4921130;29;20114;-93
2023/06/11 14:49:39;;;;;;;18.88;17.77;;;25.90;99.90;;;;;;4948260;28;20114;-93
2023/06/11 14:52:08;;;;;;;18.65;17.25;;;26.00;99.90;;;;;;4923651;29;20558;-92
2023/06/11 14:54:38;;;;;;;18.65;17.45;;;26.00;99.90;;;;;;4924211;29;20031;-94
2023/06/11 14:57:13;;;;;;;19.13;17.85;;;25.90;99.90;;;;;;4923930;29;20047;-94
2023/06/11 14:59:41;;;;;;;19.05;17.95;;;25.60;99.90;;;;;;4923709;29;20027;-92
2023/06/11 15:02:08;;;;;;;18.95;17.65;;;25.40;99.90;;;;;;4923741;29;20035;-92
2023/06/11 15:04:39;;;;;;;19.20;18.00;;;25.40;99.90;;;;;;4923499;29;20035;-92
2023/06/11 15:07:07;;;;;;;19.65;18.35;;;25.40;99.90;;;;;;4923827;29;20031;-93
2023/06/11 15:09:37;;;;;;;20.50;19.10;;;25.30;99.90;;;;;;4920616;29;20110;-93
2023/06/11 15:12:07;;;;;;;20.10;18.80;;;25.20;99.90;;;;;;4936198;29;20378;-93
2023/06/11 15:14:34;;;;;;;19.90;18.60;;;25.20;99.90;;;;;;4920175;29;20474;-93
2023/06/11 15:17:01;;;;;;;20.08;18.80;;;25.10;99.90;;;;;;4920311;29;20504;-92
2023/06/11 15:19:28;;;;;;;20.08;18.77;;;25.00;99.90;;;;;;4936137;29;20514;-93
2023/06/11 15:21:54;;;;;;;19.58;18.38;;;24.90;99.90;;;;;;4923688;29;20030;-94
2023/06/11 15:24:21;;;;;;;20.25;18.75;;;24.80;99.90;;;;;;4923828;28;20086;-94
2023/06/11 15:26:47;;;;;;;19.50;18.20;;;24.80;99.90;;;;;;4921017;29;20465;-92
2023/06/11 15:29:14;;;;;;;20.40;18.88;;;24.90;99.90;;;;;;4923674;29;20552;-94
2023/06/11 15:31:41;;;;;;;19.15;17.88;;;25.00;99.90;;;;;;4923878;29;20031;-93
2023/06/11 15:34:08;;;;;;;18.48;17.38;;;25.10;99.90;;;;;;4923708;28;20063;-92
2023/06/11 15:36:34;;;;;;;19.08;17.88;;;25.40;99.90;;;;;;4923704;29;20061;-93
2023/06/11 15:43:04;;;;;;;19.73;18.50;;;25.30;99.90;;;;;;5033787;23;20055;-92
2023/06/11 15:45:34;;;;;;;19.70;18.35;;;25.30;99.90;;;;;;4978766;28;20038;-92
2023/06/11 15:48:01;;;;;;;19.70;18.50;;;25.30;99.90;;;;;;4975477;28;20041;-93
2023/06/11 15:50:30;;;;;;;19.02;17.92;;;25.40;99.90;;;;;;4949645;28;20031;-94
2023/06/11 15:52:59;;;;;;;19.63;18.30;;;25.60;99.90;;;;;;4962425;28;20113;-94
2023/06/11 15:55:31;;;;;;;19.02;17.85;;;25.40;99.90;;;;;;4962532;28;21518;-94
2023/06/11 15:58:01;;;;;;;19.30;18.10;;;25.40;99.90;;;;;;4953897;28;20030;-94
2023/06/11 16:00:30;;;;;;;20.20;18.58;;;25.30;99.90;;;;;;4943931;29;20031;-93
2023/06/11 16:03:01;;;;;;;19.77;18.48;;;25.30;99.90;;;;;;5026666;23;20056;-93
2023/06/11 16:06:36;;;;;;;;;;;;;;;;;;;;;
2023/06/11 16:16:09;;;;;;;18.60;17.50;;;25.30;99.90;;;;;;4905774;29;20080;-94
2023/06/11 16:18:36;;;;;;;18.92;17.50;;;25.30;99.90;;;;;;4885339;29;20040;-94
2023/06/11 16:21:05;;;;;;;18.33;17.25;;;25.30;99.90;;;;;;4885115;29;20036;-94
2023/06/11 16:24:08;;;;;;;18.65;17.55;;;25.20;99.90;;;;;;4870274;29;20445;-96
2023/06/11 16:26:53;;;;;;;17.90;16.83;;;25.10;99.90;;;;;;4893236;29;20502;-95
2023/06/11 16:29:38;;;;;;;;;;;;;;;;;;;;;
2023/06/11 16:32:17;;;;;;;18.88;17.67;;;24.90;99.90;;;;;;4902031;29;20062;-95
2023/06/11 16:34:59;;;;;;;18.30;17.20;;;24.60;99.90;;;;;;4887320;29;20028;-93
2023/06/11 16:37:37;;;;;;;18.35;17.15;;;24.50;99.90;;;;;;4886919;29;20507;-96
2023/06/11 16:40:18;;;;;;;18.73;17.35;;;24.30;99.90;;;;;;4885837;29;20025;-94
2023/06/11 16:42:55;;;;;;;18.55;17.25;;;24.30;99.90;;;;;;4888948;29;20470;-95
2023/06/11 16:45:22;;;;;;;18.90;17.63;;;24.30;99.90;;;;;;4885788;29;20128;-94
2023/06/11 16:47:52;;;;;;;18.23;17.05;;;24.20;99.90;;;;;;4885623;29;20032;-95
2023/06/11 16:50:19;;;;;;;17.85;16.83;;;24.20;99.90;;;;;;4888353;29;20037;-94
2023/06/11 16:52:51;;;;;;;18.70;17.50;;;24.20;99.90;;;;;;4926598;29;20114;-95
2023/06/11 16:55:22;;;;;;;18.52;17.33;;;24.00;99.90;;;;;;4943572;29;20027;-93
2023/06/11 16:57:52;;;;;;;18.23;17.23;;;24.00;99.90;;;;;;4927591;28;20047;-95
2023/06/11 17:00:19;;;;;;;18.10;16.90;;;24.10;99.90;;;;;;4923003;29;20042;-94
2023/06/11 17:02:50;;;;;;;17.98;16.88;;;24.10;99.90;;;;;;4937713;29;20046;-95
2023/06/11 17:05:17;;;;;;;18.17;17.08;;;24.00;99.90;;;;;;4938872;29;20036;-95
2023/06/11 17:07:44;;;;;;;19.25;17.85;;;24.00;99.90;;;;;;4938666;29;20094;-94
2023/06/11 17:10:11;;;;;;;18.90;17.42;;;24.00;99.90;;;;;;4938374;29;20028;-96
2023/06/11 17:12:40;;;;;;;19.05;17.58;;;23.90;99.90;;;;;;4918426;29;20045;-94
2023/06/11 17:15:13;;;;;;;17.65;16.65;;;24.00;99.90;;;;;;4917182;29;20076;-94
2023/06/11 17:17:40;;;;;;;19.38;17.90;;;24.00;99.90;;;;;;4918285;29;20056;-94
2023/06/11 17:20:07;;;;;;;18.38;17.17;;;24.00;99.90;;;;;;4915807;29;20111;-95
2023/06/11 17:22:34;;;;;;;18.90;17.40;;;23.90;99.90;;;;;;4915935;29;20040;-95
2023/06/11 17:25:04;;;;;;;19.08;17.70;;;23.80;99.90;;;;;;4885623;29;20040;-95
2023/06/11 17:27:31;;;;;;;18.77;17.58;;;23.90;99.90;;;;;;4900671;29;20394;-94
2023/06/11 17:29:57;;;;;;;18.42;17.33;;;23.80;99.90;;;;;;4905592;29;20036;-95
2023/06/11 17:32:24;;;;;;;18.35;17.17;;;23.80;99.90;;;;;;4884806;29;20029;-95
2023/06/11 17:34:55;;;;;;;18.85;17.55;;;23.70;99.90;;;;;;4899971;29;20033;-96
2023/06/11 17:37:25;;;;;;;17.92;16.92;;;23.70;99.90;;;;;;4900136;29;20037;-95
2023/06/11 17:39:52;;;;;;;18.60;17.40;;;23.60;99.90;;;;;;4900001;29;20040;-95
2023/06/11 17:42:19;;;;;;;18.13;16.92;;;23.60;99.90;;;;;;4899709;29;20104;-94